Hauptseite
METAR-TAF:

METAR-TAF

Flughäfen :

Bohrplattform

J6-a, Niederlande

Breite: 53-49-27N, Länge: 2-56-43E, Höhe: 34 m

Beobachtung

Neuester Wetterbericht von vor 10 Minuten, um 00:25 UTC
Wind 12 kt aus Südost, variierte zwischen Ost und Süd
Temperatur 14°C
Luftfeuchtigkeit 94%
Luftdruck 1006 hPa
Sichtweite: 3000 m
Sprühregen leicht

METAR: EHJA 240025Z AUTO 13012KT 090V170 3000 -DZ SCT005/// BKN006/// 14/13 Q1006 REDZ W///H///

Zeit: 02:35 (00:35 UTC)


TAF: fehlend

Wetterbeobachtungen und Prognosen von mehr als 4000 Flughäfen (METAR und TAF Bericht).

Die verfügbaren Stationen werden durch gelbe und rote Markierungen auf der Karte dargestellt.

Führen Sie die Maus auf sie, um den Namen der Station zu sehen.

Darauf klicken, um die Beobachtung von Wetterbeobachtungen und Prognosen zu sehen.

Um die Karte zu ändern : klicken Sie auf den grünen Tasten mit einem schwarzen Kreuz Zum Vergrößern, auf den grünen Button mit einem Gedankenstrich zu verkleinern, oder auf die grünen Pfeile für benachbarte Karten.


METAR-TAF: